createdAt,value
2019-02-07T00:00:22.189Z,57.77
2019-02-07T00:05:19.331Z,76.30
2019-02-07T00:10:19.231Z,62.80
2019-02-07T00:15:16.692Z,62.03
2019-02-07T00:20:18.503Z,57.83
2019-02-07T00:25:15.463Z,67.13
2019-02-07T00:30:20.349Z,61.40
2019-02-07T00:35:17.269Z,53.20
2019-02-07T00:40:20.591Z,54.83
2019-02-07T00:45:18.996Z,59.60
2019-02-07T00:50:17.487Z,44.20
2019-02-07T00:55:16.503Z,58.60
2019-02-07T01:00:25.949Z,46.00
2019-02-07T01:05:22.951Z,33.33
2019-02-07T01:10:28.756Z,35.27
2019-02-07T01:15:27.278Z,38.83
2019-02-07T01:20:24.394Z,42.57
2019-02-07T01:25:23.197Z,32.30
2019-02-07T01:30:28.504Z,30.20
2019-02-07T01:35:25.539Z,33.83
2019-02-07T01:40:22.929Z,32.13
2019-02-07T01:45:23.554Z,23.33
2019-02-07T01:50:23.796Z,31.67
2019-02-07T01:55:21.117Z,26.30
2019-02-07T02:00:19.364Z,27.37
2019-02-07T02:05:18.377Z,28.47
2019-02-07T02:10:23.100Z,24.80
2019-02-07T02:15:24.505Z,24.93
2019-02-07T02:20:23.057Z,26.67
2019-02-07T02:25:20.317Z,25.93
2019-02-07T02:30:24.547Z,31.03
2019-02-07T02:35:21.465Z,26.00
2019-02-07T02:40:18.510Z,29.13
2019-02-07T02:45:21.079Z,30.53
2019-02-07T02:50:19.430Z,28.20
2019-02-07T02:55:18.134Z,33.77
2019-02-07T03:00:20.397Z,25.47
2019-02-07T03:05:20.069Z,21.93
2019-02-07T03:10:24.838Z,25.07
2019-02-07T03:15:21.754Z,23.13
2019-02-07T03:20:23.590Z,23.77
2019-02-07T03:25:31.496Z,25.03
2019-02-07T03:30:35.983Z,23.77
2019-02-07T03:35:44.860Z,22.70
2019-02-07T03:40:55.313Z,26.93
2019-02-07T03:46:03.137Z,21.30
2019-02-07T03:50:59.769Z,20.43
2019-02-07T03:56:03.263Z,22.07
2019-02-07T04:01:11.131Z,20.77
2019-02-07T04:06:09.953Z,22.63
2019-02-07T04:11:11.945Z,19.70
2019-02-07T04:16:15.452Z,18.10
2019-02-07T04:21:31.353Z,19.63
2019-02-07T04:26:39.044Z,22.30
2019-02-07T04:31:37.930Z,21.27
2019-02-07T04:36:48.594Z,21.27
2019-02-07T04:41:51.659Z,21.37
2019-02-07T04:46:48.699Z,23.70
2019-02-07T04:52:03.625Z,21.20
2019-02-07T04:57:04.901Z,26.10
2019-02-07T05:02:20.342Z,23.70
2019-02-07T05:07:19.758Z,21.07
2019-02-07T05:12:30.406Z,20.93
2019-02-07T05:17:41.293Z,23.67
2019-02-07T05:22:41.161Z,22.47
2019-02-07T05:27:56.993Z,22.43
2019-02-07T05:33:08.501Z,22.60
2019-02-07T05:38:16.773Z,21.63
2019-02-07T05:43:15.504Z,21.77
2019-02-07T05:48:14.209Z,19.73
2019-02-07T05:53:13.637Z,22.10
2019-02-07T05:58:16.556Z,21.57
2019-02-07T06:03:15.257Z,20.57
2019-02-07T06:08:29.135Z,19.90
2019-02-07T06:13:27.873Z,22.57
2019-02-07T06:18:43.495Z,25.17
2019-02-07T06:23:57.779Z,23.87
2019-02-07T06:28:59.290Z,20.80
2019-02-07T06:34:11.020Z,24.50
2019-02-07T06:39:14.322Z,17.90
2019-02-07T06:44:26.308Z,15.07
2019-02-07T06:49:25.016Z,17.20
2019-02-07T06:54:26.384Z,17.17
2019-02-07T06:59:41.841Z,17.27
2019-02-07T07:04:41.446Z,26.43
2019-02-07T07:09:56.551Z,23.50
2019-02-07T07:14:58.248Z,23.77
2019-02-07T07:20:05.982Z,27.70
2019-02-07T07:25:18.840Z,30.27
2019-02-07T07:30:17.645Z,19.80
2019-02-07T07:35:16.566Z,19.63
2019-02-07T07:40:15.400Z,17.57
2019-02-07T07:45:18.282Z,25.33
2019-02-07T07:50:33.382Z,25.53
2019-02-07T07:55:32.095Z,49.07
2019-02-07T08:00:30.873Z,35.30
2019-02-07T08:05:46.589Z,49.70
2019-02-07T08:10:48.115Z,60.47
2019-02-07T08:15:54.584Z,77.27
2019-02-07T08:21:09.751Z,40.10
2019-02-07T08:26:25.059Z,32.37
2019-02-07T08:31:26.560Z,34.37
2019-02-07T08:36:23.439Z,19.37
2019-02-07T08:41:25.124Z,17.83
2019-02-07T08:46:40.317Z,21.27
2019-02-07T08:51:56.010Z,12.23
2019-02-07T08:57:11.164Z,21.17
2019-02-07T09:02:26.422Z,16.90
2019-02-07T09:07:34.298Z,12.93
2019-02-07T09:12:33.005Z,6.97
2019-02-07T09:17:31.720Z,8.87
2019-02-07T09:22:46.814Z,6.77
2019-02-07T09:27:45.563Z,12.47
2019-02-07T09:32:49.965Z,10.30
2019-02-07T09:38:00.469Z,10.03
2019-02-07T09:43:04.805Z,9.47
2019-02-07T09:48:21.087Z,10.50
2019-02-07T09:53:10.311Z,6.50
2019-02-07T09:58:07.143Z,6.23
2019-02-07T10:03:18.757Z,7.20
2019-02-07T10:08:20.627Z,10.90
2019-02-07T10:13:22.134Z,6.50
2019-02-07T10:18:32.559Z,13.20
2019-02-07T10:23:22.453Z,13.87
2019-02-07T10:28:19.670Z,12.17
2019-02-07T10:33:27.732Z,9.47
2019-02-07T10:38:27.332Z,7.93
2019-02-07T10:43:35.109Z,8.07
2019-02-07T10:48:44.535Z,11.37
2019-02-07T10:53:55.064Z,10.60
2019-02-07T10:59:04.146Z,6.27
2019-02-07T11:04:17.924Z,11.77
2019-02-07T11:09:14.754Z,10.20
2019-02-07T11:14:25.444Z,7.87
2019-02-07T11:19:35.632Z,6.83
2019-02-07T11:24:42.160Z,9.53
2019-02-07T11:29:40.900Z,6.63
2019-02-07T11:34:55.991Z,8.33
2019-02-07T11:40:06.861Z,6.93
2019-02-07T11:45:29.050Z,5.60
2019-02-07T11:50:44.675Z,8.40
2019-02-07T11:56:00.167Z,8.53
2019-02-07T12:01:15.585Z,13.37
2019-02-07T12:06:20.103Z,7.70
2019-02-07T12:11:22.693Z,8.70
2019-02-07T12:16:39.877Z,5.63
2019-02-07T12:21:36.710Z,6.63
2019-02-07T12:26:38.055Z,8.23
2019-02-07T12:31:34.862Z,6.07
2019-02-07T12:36:34.460Z,5.73
2019-02-07T12:41:50.214Z,4.93
2019-02-07T12:47:06.782Z,7.63
2019-02-07T12:52:06.493Z,8.63
2019-02-07T12:57:05.523Z,10.60
2019-02-07T13:02:16.790Z,5.30
2019-02-07T13:07:19.733Z,6.17
2019-02-07T13:12:28.874Z,6.27
2019-02-07T13:17:44.069Z,7.50
2019-02-07T13:22:56.346Z,7.40
2019-02-07T13:27:58.042Z,5.67
2019-02-07T13:33:04.510Z,6.27
2019-02-07T13:38:03.262Z,6.03
2019-02-07T13:43:09.887Z,7.13
2019-02-07T13:48:17.458Z,5.77
2019-02-07T13:53:14.314Z,8.17
2019-02-07T13:58:17.482Z,8.13
2019-02-07T14:03:17.012Z,7.93
2019-02-07T14:08:15.791Z,7.07
2019-02-07T14:13:15.415Z,6.37
2019-02-07T14:18:17.779Z,5.93
2019-02-07T14:23:19.782Z,7.80
2019-02-07T14:28:33.707Z,6.67
2019-02-07T14:33:49.354Z,9.63
2019-02-07T14:38:52.001Z,7.43
2019-02-07T14:43:51.709Z,8.70
2019-02-07T14:48:48.642Z,10.10
2019-02-07T14:53:45.597Z,8.97
2019-02-07T14:58:42.525Z,10.20
2019-02-07T15:03:39.661Z,9.37
2019-02-07T15:08:36.567Z,10.40
2019-02-07T15:13:33.562Z,10.10
2019-02-07T15:18:30.965Z,8.10
2019-02-07T15:23:28.011Z,10.03
2019-02-07T15:28:24.912Z,12.53
2019-02-07T15:33:21.899Z,11.73
2019-02-07T15:38:18.905Z,14.13
2019-02-07T15:43:16.051Z,23.97
2019-02-07T15:48:14.020Z,22.70
2019-02-07T15:53:11.931Z,24.70
2019-02-07T15:58:09.064Z,38.83
2019-02-07T16:03:07.804Z,37.80
2019-02-07T16:08:05.018Z,25.20
2019-02-07T16:13:01.965Z,28.67
2019-02-07T16:17:58.981Z,28.93
2019-02-07T16:22:58.911Z,29.97
2019-02-07T16:27:55.227Z,35.77
2019-02-07T16:32:52.284Z,43.40
2019-02-07T16:37:49.879Z,48.20
2019-02-07T16:42:46.874Z,40.60
2019-02-07T16:47:43.770Z,38.57
2019-02-07T16:52:41.621Z,38.50
2019-02-07T16:57:38.872Z,29.23
2019-02-07T17:02:35.894Z,26.40
2019-02-07T17:07:32.852Z,33.73
2019-02-07T17:12:29.981Z,28.13
2019-02-07T17:17:26.919Z,34.60
2019-02-07T17:22:24.270Z,31.60
2019-02-07T17:27:21.335Z,24.90
2019-02-07T17:32:18.669Z,28.23
2019-02-07T17:37:15.644Z,20.03
2019-02-07T17:42:13.159Z,30.80
2019-02-07T17:47:10.553Z,28.60
2019-02-07T17:52:07.905Z,23.13
2019-02-07T17:57:05.800Z,21.43
2019-02-07T18:02:05.355Z,19.73
2019-02-07T18:07:02.437Z,17.80
2019-02-07T18:11:59.400Z,23.23
2019-02-07T18:16:56.318Z,21.27
2019-02-07T18:21:53.360Z,18.93
2019-02-07T18:26:50.281Z,20.13
2019-02-07T18:31:47.232Z,25.10
2019-02-07T18:36:44.193Z,31.00
2019-02-07T18:41:41.166Z,18.67
2019-02-07T18:46:38.474Z,17.50
2019-02-07T18:51:45.148Z,21.87
2019-02-07T18:56:34.675Z,22.97
2019-02-07T19:01:31.814Z,17.50
2019-02-07T19:06:28.767Z,19.10
2019-02-07T19:11:25.710Z,22.70
2019-02-07T19:16:22.630Z,20.20
2019-02-07T19:21:19.825Z,18.03
2019-02-07T19:26:16.916Z,16.43
2019-02-07T19:31:14.050Z,16.80
2019-02-07T19:36:11.367Z,27.50
2019-02-07T19:41:08.315Z,18.43
2019-02-07T19:46:05.249Z,20.57
2019-02-07T19:51:02.235Z,21.90
2019-02-07T19:55:59.162Z,28.40
2019-02-07T20:00:56.214Z,25.77
2019-02-07T20:05:54.029Z,31.90
2019-02-07T20:10:50.997Z,40.60
2019-02-07T20:15:48.027Z,17.97
2019-02-07T20:20:45.113Z,17.07
2019-02-07T20:25:42.034Z,16.17
2019-02-07T20:30:42.399Z,16.10
2019-02-07T20:35:39.439Z,15.70
2019-02-07T20:40:36.372Z,14.53
2019-02-07T20:45:33.690Z,12.97
2019-02-07T20:50:30.649Z,14.37
2019-02-07T20:55:27.664Z,16.27
2019-02-07T21:00:34.862Z,14.57
2019-02-07T21:05:32.597Z,16.57
2019-02-07T21:10:33.275Z,14.17
2019-02-07T21:15:30.397Z,14.77
2019-02-07T21:20:29.847Z,16.23
2019-02-07T21:25:41.165Z,16.00
2019-02-07T21:30:38.386Z,18.40
2019-02-07T21:35:35.317Z,16.53
2019-02-07T21:40:32.233Z,12.90
2019-02-07T21:45:29.545Z,14.63
2019-02-07T21:50:29.166Z,12.43
2019-02-07T21:55:34.929Z,14.20
2019-02-07T22:00:44.880Z,21.00
2019-02-07T22:05:42.409Z,15.27
2019-02-07T22:10:40.029Z,14.73
2019-02-07T22:15:37.225Z,14.63
2019-02-07T22:20:34.195Z,13.83
2019-02-07T22:25:31.498Z,14.50
2019-02-07T22:30:34.862Z,14.33
2019-02-07T22:35:31.859Z,14.20
2019-02-07T22:40:29.262Z,15.63
2019-02-07T22:45:26.402Z,12.33
2019-02-07T22:50:30.205Z,13.33
2019-02-07T22:55:27.209Z,11.77
2019-02-07T23:00:35.510Z,14.10
2019-02-07T23:05:32.418Z,13.70
2019-02-07T23:10:29.390Z,14.43
2019-02-07T23:15:28.226Z,13.17
2019-02-07T23:20:25.165Z,14.63
2019-02-07T23:25:22.151Z,12.00
2019-02-07T23:30:19.398Z,14.23
2019-02-07T23:35:16.300Z,14.47
2019-02-07T23:40:17.082Z,13.03
2019-02-07T23:45:17.290Z,16.27
2019-02-07T23:50:14.429Z,12.63
2019-02-07T23:55:13.236Z,12.57
